createdAt,value
2016-06-30T00:00:00.828Z,18.4
2016-06-30T00:00:10.827Z,18.4
2016-06-30T00:00:20.839Z,18.4
2016-06-30T00:00:30.842Z,18.4
2016-06-30T00:00:40.858Z,18.4
2016-06-30T00:00:50.855Z,18.5
2016-06-30T00:01:00.868Z,18.4
2016-06-30T00:01:10.875Z,18.4
2016-06-30T00:01:20.875Z,18.5
2016-06-30T00:01:30.892Z,18.4
2016-06-30T00:01:40.889Z,18.4
2016-06-30T00:01:50.897Z,18.4
2016-06-30T00:02:00.901Z,18.4
2016-06-30T00:02:10.917Z,18.3
2016-06-30T00:02:20.910Z,18.4
2016-06-30T00:02:30.919Z,18.4
2016-06-30T00:02:40.936Z,18.4
2016-06-30T00:02:50.936Z,18.4
2016-06-30T00:03:00.943Z,18.4
2016-06-30T00:03:10.946Z,18.4
2016-06-30T00:03:20.973Z,18.5
2016-06-30T00:03:30.961Z,18.4
2016-06-30T00:03:40.965Z,18.5
2016-06-30T00:03:50.970Z,18.4
2016-06-30T00:04:00.979Z,18.4
2016-06-30T00:04:10.987Z,18.4
2016-06-30T00:04:20.990Z,18.4
2016-06-30T00:04:31.008Z,18.4
2016-06-30T00:04:41.013Z,18.5
2016-06-30T00:04:51.010Z,18.5
2016-06-30T00:05:01.022Z,18.5
2016-06-30T00:05:11.025Z,18.5
2016-06-30T00:05:21.027Z,18.5
2016-06-30T00:05:31.047Z,18.4
2016-06-30T00:05:41.057Z,18.4
2016-06-30T00:05:51.050Z,18.4
2016-06-30T00:06:01.056Z,18.5
2016-06-30T00:06:11.105Z,18.5
2016-06-30T00:06:21.069Z,18.5
2016-06-30T00:06:31.090Z,18.5
2016-06-30T00:06:41.091Z,18.5
2016-06-30T00:06:51.085Z,18.5
2016-06-30T00:07:01.105Z,18.5
2016-06-30T00:07:11.102Z,18.4
2016-06-30T00:07:21.105Z,18.5
2016-06-30T00:07:31.111Z,18.5
2016-06-30T00:07:41.120Z,18.4
2016-06-30T00:07:51.121Z,18.4
2016-06-30T00:08:01.142Z,18.4
2016-06-30T00:08:11.143Z,18.5
2016-06-30T00:08:21.137Z,18.4
2016-06-30T00:08:31.156Z,18.4
2016-06-30T00:08:41.156Z,18.5
2016-06-30T00:08:51.171Z,18.4
2016-06-30T00:09:01.180Z,18.4
2016-06-30T00:09:11.181Z,18.4
2016-06-30T00:09:21.183Z,18.4
2016-06-30T00:09:31.190Z,18.5
2016-06-30T00:09:41.204Z,18.4
2016-06-30T00:09:51.202Z,18.4
2016-06-30T00:10:01.211Z,18.4
2016-06-30T00:10:11.215Z,18.4
2016-06-30T00:10:21.229Z,18.5
2016-06-30T00:10:31.231Z,18.4
2016-06-30T00:10:41.234Z,18.5
2016-06-30T00:10:51.262Z,18.5
2016-06-30T00:11:01.254Z,18.4
2016-06-30T00:11:11.255Z,18.4
2016-06-30T00:11:21.266Z,18.4
2016-06-30T00:11:31.268Z,18.4
2016-06-30T00:11:41.276Z,18.4
2016-06-30T00:11:51.281Z,18.4
2016-06-30T00:12:01.287Z,18.4
2016-06-30T00:12:11.313Z,18.4
2016-06-30T00:12:21.299Z,18.4
2016-06-30T00:12:31.310Z,18.4
2016-06-30T00:12:41.315Z,18.4
2016-06-30T00:12:51.314Z,18.5
2016-06-30T00:13:01.322Z,18.4
2016-06-30T00:13:11.330Z,18.5
2016-06-30T00:13:21.338Z,18.5
2016-06-30T00:13:31.346Z,18.5
2016-06-30T00:13:41.349Z,18.5
2016-06-30T00:13:51.363Z,18.6
2016-06-30T00:14:01.366Z,18.6
2016-06-30T00:14:11.370Z,18.5
2016-06-30T00:14:21.376Z,18.5
2016-06-30T00:14:31.381Z,18.5
2016-06-30T00:14:41.404Z,18.5
2016-06-30T00:14:51.395Z,18.5
2016-06-30T00:15:01.401Z,18.4
2016-06-30T00:15:11.402Z,18.4
2016-06-30T00:15:21.421Z,18.4
2016-06-30T00:15:31.420Z,18.5
2016-06-30T00:15:41.431Z,18.4
2016-06-30T00:15:51.433Z,18.4
2016-06-30T00:16:01.442Z,18.4
2016-06-30T00:16:11.450Z,18.4
2016-06-30T00:16:21.454Z,18.4
2016-06-30T00:16:31.461Z,18.3
2016-06-30T00:16:41.469Z,18.4
2016-06-30T00:16:51.474Z,18.3
2016-06-30T00:17:01.481Z,18.3
2016-06-30T00:17:11.486Z,18.3
2016-06-30T00:17:21.494Z,18.4
2016-06-30T00:17:31.503Z,18.3
2016-06-30T00:17:41.509Z,18.4
2016-06-30T00:17:51.513Z,18.4
2016-06-30T00:18:01.524Z,18.4
2016-06-30T00:18:11.523Z,18.4
2016-06-30T00:18:21.530Z,18.3
2016-06-30T00:18:31.534Z,18.4
2016-06-30T00:18:41.541Z,18.4
2016-06-30T00:18:51.551Z,18.4
2016-06-30T00:19:01.556Z,18.4
2016-06-30T00:19:11.593Z,18.3
2016-06-30T00:19:21.572Z,18.3
2016-06-30T00:19:31.580Z,18.3
2016-06-30T00:19:41.595Z,18.4
2016-06-30T00:19:51.595Z,18.4
2016-06-30T00:20:01.605Z,18.4
2016-06-30T00:20:11.603Z,18.5
2016-06-30T00:20:21.611Z,18.4
2016-06-30T00:20:31.618Z,18.4
2016-06-30T00:20:41.621Z,18.4
2016-06-30T00:20:51.631Z,18.4
2016-06-30T00:21:01.642Z,18.4
2016-06-30T00:21:11.639Z,18.4
2016-06-30T00:21:21.649Z,18.4
2016-06-30T00:21:31.651Z,18.4
2016-06-30T00:21:41.662Z,18.4
2016-06-30T00:21:51.671Z,18.4
2016-06-30T00:22:01.671Z,18.4
2016-06-30T00:22:11.702Z,18.4
2016-06-30T00:22:21.686Z,18.3
2016-06-30T00:22:31.708Z,18.3
2016-06-30T00:22:41.700Z,18.4
2016-06-30T00:22:51.710Z,18.5
2016-06-30T00:23:01.713Z,18.4
2016-06-30T00:23:11.721Z,18.4
2016-06-30T00:23:21.725Z,18.4
2016-06-30T00:23:31.730Z,18.3
2016-06-30T00:23:41.746Z,18.4
2016-06-30T00:23:51.743Z,18.3
2016-06-30T00:24:01.744Z,18.4
2016-06-30T00:24:11.757Z,18.3
2016-06-30T00:24:21.781Z,18.4
2016-06-30T00:24:31.763Z,18.4
2016-06-30T00:24:41.782Z,18.4
2016-06-30T00:24:51.777Z,18.4
2016-06-30T00:25:01.794Z,18.4
2016-06-30T00:25:11.800Z,18.3
2016-06-30T00:25:21.803Z,18.4
2016-06-30T00:25:31.804Z,18.3
2016-06-30T00:25:41.816Z,18.4
2016-06-30T00:25:51.818Z,18.4
2016-06-30T00:26:01.847Z,18.4
2016-06-30T00:26:11.837Z,18.3
2016-06-30T00:26:21.839Z,18.4
2016-06-30T00:26:31.847Z,18.4
2016-06-30T00:26:41.867Z,18.4
2016-06-30T00:26:51.864Z,18.4
2016-06-30T00:27:01.869Z,18.4
2016-06-30T00:27:11.875Z,18.5
2016-06-30T00:27:21.876Z,18.4
2016-06-30T00:27:31.885Z,18.4
2016-06-30T00:27:41.891Z,18.4
2016-06-30T00:27:51.899Z,18.3
2016-06-30T00:28:01.907Z,18.4
2016-06-30T00:28:11.910Z,18.4
2016-06-30T00:28:21.915Z,18.4
2016-06-30T00:28:31.923Z,18.4
2016-06-30T00:28:41.927Z,18.4
2016-06-30T00:28:51.936Z,18.4
2016-06-30T00:29:01.948Z,18.4
2016-06-30T00:29:11.962Z,18.4
2016-06-30T00:29:21.957Z,18.5
2016-06-30T00:29:31.964Z,18.4
2016-06-30T00:29:41.986Z,18.4
2016-06-30T00:29:51.973Z,18.5
2016-06-30T00:30:01.983Z,18.5
2016-06-30T00:30:11.996Z,18.5
2016-06-30T00:30:21.994Z,18.5
2016-06-30T00:30:31.999Z,18.4
2016-06-30T00:30:42.011Z,18.4
2016-06-30T00:30:52.026Z,18.4
2016-06-30T00:31:02.016Z,18.5
2016-06-30T00:31:12.075Z,18.4
2016-06-30T00:31:22.032Z,18.4
2016-06-30T00:31:32.042Z,18.5
2016-06-30T00:31:42.043Z,18.4
2016-06-30T00:31:52.059Z,18.4
2016-06-30T00:32:02.058Z,18.4
2016-06-30T00:32:12.067Z,18.4
2016-06-30T00:32:22.071Z,18.5
2016-06-30T00:32:32.074Z,18.4
2016-06-30T00:32:42.088Z,18.5
2016-06-30T00:32:52.092Z,18.5
2016-06-30T00:33:02.092Z,18.5
2016-06-30T00:33:12.106Z,18.5
2016-06-30T00:33:22.108Z,18.6
2016-06-30T00:33:32.120Z,18.6
2016-06-30T00:33:42.122Z,18.6
2016-06-30T00:33:52.147Z,18.6
2016-06-30T00:34:02.134Z,18.7
2016-06-30T00:34:12.142Z,18.6
2016-06-30T00:34:22.143Z,18.5
2016-06-30T00:34:32.153Z,18.5
2016-06-30T00:34:42.172Z,18.5
2016-06-30T00:34:52.164Z,18.5
2016-06-30T00:35:02.175Z,18.5
2016-06-30T00:35:12.182Z,18.5
2016-06-30T00:35:22.180Z,18.5
2016-06-30T00:35:32.195Z,18.5
2016-06-30T00:35:42.198Z,18.5
2016-06-30T00:35:52.203Z,18.5
2016-06-30T00:36:02.209Z,18.5
2016-06-30T00:36:12.215Z,18.5
2016-06-30T00:36:22.225Z,18.5
2016-06-30T00:36:32.226Z,18.5
2016-06-30T00:36:42.233Z,18.5
2016-06-30T00:36:52.244Z,18.4
2016-06-30T00:37:02.251Z,18.5
2016-06-30T00:37:12.269Z,18.5
2016-06-30T00:37:22.262Z,18.5
2016-06-30T00:37:32.269Z,18.6
2016-06-30T00:37:42.357Z,18.6
2016-06-30T00:37:52.285Z,18.6
2016-06-30T00:38:02.288Z,18.6
2016-06-30T00:38:12.297Z,18.5
2016-06-30T00:38:22.336Z,18.5
2016-06-30T00:38:32.308Z,18.5
2016-06-30T00:38:42.317Z,18.5
2016-06-30T00:38:52.335Z,18.6
2016-06-30T00:39:02.356Z,18.6
2016-06-30T00:39:12.329Z,18.6
2016-06-30T00:39:22.349Z,18.6
2016-06-30T00:39:32.344Z,18.6
2016-06-30T00:39:42.352Z,18.5
2016-06-30T00:39:52.362Z,18.6
2016-06-30T00:40:02.369Z,18.5
2016-06-30T00:40:12.368Z,18.5
2016-06-30T00:40:22.379Z,18.7
2016-06-30T00:40:32.384Z,18.5
2016-06-30T00:40:42.399Z,18.5
2016-06-30T00:40:52.394Z,18.6
2016-06-30T00:41:02.409Z,18.5
2016-06-30T00:41:12.413Z,18.6
2016-06-30T00:41:22.418Z,18.5
2016-06-30T00:41:32.422Z,18.5
2016-06-30T00:41:42.429Z,18.4
2016-06-30T00:41:52.441Z,18.4
2016-06-30T00:42:02.439Z,18.5
2016-06-30T00:42:12.460Z,18.5
2016-06-30T00:42:22.464Z,18.5
2016-06-30T00:42:32.465Z,18.6
2016-06-30T00:42:42.478Z,18.5
2016-06-30T00:42:52.471Z,18.6
2016-06-30T00:43:02.476Z,18.6
2016-06-30T00:43:12.494Z,18.7
2016-06-30T00:43:22.490Z,18.5
2016-06-30T00:43:32.499Z,18.5
2016-06-30T00:43:42.506Z,18.5
2016-06-30T00:43:52.515Z,18.5
2016-06-30T00:44:02.519Z,18.5
2016-06-30T00:44:12.624Z,18.5
2016-06-30T00:44:22.533Z,18.5
2016-06-30T00:44:32.552Z,18.5
2016-06-30T00:44:42.538Z,18.5
2016-06-30T00:44:52.550Z,18.4
2016-06-30T00:45:02.571Z,18.5
2016-06-30T00:45:12.566Z,18.5
2016-06-30T00:45:22.566Z,18.4
2016-06-30T00:45:32.580Z,18.4
2016-06-30T00:45:42.584Z,18.4
2016-06-30T00:45:52.583Z,18.3
2016-06-30T00:46:02.599Z,18.3
2016-06-30T00:46:12.639Z,18.4
2016-06-30T00:46:22.623Z,18.3
2016-06-30T00:46:32.614Z,18.3
2016-06-30T00:46:42.627Z,18.4
2016-06-30T00:46:52.671Z,18.4
2016-06-30T00:47:02.632Z,18.4
2016-06-30T00:47:12.638Z,18.4
2016-06-30T00:47:22.647Z,18.5
2016-06-30T00:47:32.686Z,18.3
2016-06-30T00:47:42.662Z,18.4
2016-06-30T00:47:52.671Z,18.4
2016-06-30T00:48:02.672Z,18.3
2016-06-30T00:48:12.740Z,18.3
2016-06-30T00:48:22.689Z,18.3
2016-06-30T00:48:32.692Z,18.4
2016-06-30T00:48:42.712Z,18.3
2016-06-30T00:48:52.702Z,18.4
2016-06-30T00:49:02.710Z,18.4
2016-06-30T00:49:12.716Z,18.4
2016-06-30T00:49:22.734Z,18.4
2016-06-30T00:49:32.728Z,18.4
2016-06-30T00:49:42.736Z,18.5
2016-06-30T00:49:52.743Z,18.4
2016-06-30T00:50:02.750Z,18.3
2016-06-30T00:50:12.755Z,18.3
2016-06-30T00:50:22.764Z,18.4
2016-06-30T00:50:32.774Z,18.4
2016-06-30T00:50:42.785Z,18.2
2016-06-30T00:50:52.786Z,18.3
2016-06-30T00:51:02.786Z,18.3
2016-06-30T00:51:12.804Z,18.4
2016-06-30T00:51:22.800Z,18.4
2016-06-30T00:51:32.810Z,18.4
2016-06-30T00:51:42.810Z,18.4
2016-06-30T00:51:52.826Z,18.3
2016-06-30T00:52:02.824Z,18.3
2016-06-30T00:52:12.838Z,18.3
2016-06-30T00:52:22.839Z,18.3
2016-06-30T00:52:32.842Z,18.3
2016-06-30T00:52:42.848Z,18.3
2016-06-30T00:52:52.869Z,18.4
2016-06-30T00:53:02.867Z,18.3
2016-06-30T00:53:12.874Z,18.3
2016-06-30T00:53:22.879Z,18.3
2016-06-30T00:53:32.881Z,18.3
2016-06-30T00:53:42.904Z,18.2
2016-06-30T00:53:52.893Z,18.3
2016-06-30T00:54:02.901Z,18.3
2016-06-30T00:54:12.907Z,18.3
2016-06-30T00:54:22.919Z,18.4
2016-06-30T00:54:32.924Z,18.3
2016-06-30T00:54:42.926Z,18.3
2016-06-30T00:54:52.936Z,18.3
2016-06-30T00:55:02.947Z,18.3
2016-06-30T00:55:12.952Z,18.3
2016-06-30T00:55:22.960Z,18.2
2016-06-30T00:55:32.967Z,18.3
2016-06-30T00:55:42.970Z,18.3
2016-06-30T00:55:52.982Z,18.3
2016-06-30T00:56:02.979Z,18.3
2016-06-30T00:56:12.986Z,18.3
2016-06-30T00:56:22.989Z,18.3
2016-06-30T00:56:32.997Z,18.3
2016-06-30T00:56:43.007Z,18.3
2016-06-30T00:56:53.054Z,18.3
2016-06-30T00:57:03.021Z,18.2
2016-06-30T00:57:13.026Z,18.3
2016-06-30T00:57:23.033Z,18.2
2016-06-30T00:57:33.038Z,18.3
2016-06-30T00:57:43.043Z,18.2
2016-06-30T00:57:53.058Z,18.3
2016-06-30T00:58:03.055Z,18.3
2016-06-30T00:58:13.066Z,18.3
2016-06-30T00:58:23.073Z,18.3
2016-06-30T00:58:33.074Z,18.3
2016-06-30T00:58:43.098Z,18.3
2016-06-30T00:58:53.090Z,18.4
2016-06-30T00:59:03.093Z,18.4
2016-06-30T00:59:13.104Z,18.3
2016-06-30T00:59:23.108Z,18.3
2016-06-30T00:59:33.118Z,18.3
2016-06-30T00:59:43.144Z,18.3
2016-06-30T00:59:53.132Z,18.4
2016-06-30T01:00:03.134Z,18.4
2016-06-30T01:00:13.146Z,18.2
2016-06-30T01:00:23.151Z,18.3
2016-06-30T01:00:33.153Z,18.3
2016-06-30T01:00:43.162Z,18.3
2016-06-30T01:00:53.171Z,18.3
2016-06-30T01:01:03.174Z,18.3
2016-06-30T01:01:13.178Z,18.3
2016-06-30T01:01:23.187Z,18.2
2016-06-30T01:01:33.210Z,18.3
2016-06-30T01:01:43.198Z,18.2
2016-06-30T01:01:53.208Z,18.2
2016-06-30T01:02:03.213Z,18.2
2016-06-30T01:02:13.216Z,18.2
2016-06-30T01:02:23.228Z,18.2
2016-06-30T01:02:33.232Z,18.2
2016-06-30T01:02:43.241Z,18.2
2016-06-30T01:02:53.240Z,18.2
2016-06-30T01:03:03.251Z,18.2
2016-06-30T01:03:13.252Z,18.2
2016-06-30T01:03:23.265Z,18.2
2016-06-30T01:03:33.262Z,18.2
2016-06-30T01:03:43.275Z,18.3
2016-06-30T01:03:53.284Z,18.3
2016-06-30T01:04:03.292Z,18.3
2016-06-30T01:04:13.294Z,18.3
2016-06-30T01:04:23.307Z,18.3
2016-06-30T01:04:33.306Z,18.2
2016-06-30T01:04:43.311Z,18.3
2016-06-30T01:04:53.317Z,18.2
2016-06-30T01:05:03.322Z,18.3
2016-06-30T01:05:13.334Z,18.3
2016-06-30T01:05:23.348Z,18.3
2016-06-30T01:05:33.363Z,18.2
2016-06-30T01:05:43.354Z,18.2
2016-06-30T01:05:53.394Z,18.2
2016-06-30T01:06:03.371Z,18.2
2016-06-30T01:06:13.368Z,18.2
2016-06-30T01:06:23.385Z,18.2
2016-06-30T01:06:33.404Z,18.2
2016-06-30T01:06:43.388Z,18.2
2016-06-30T01:06:53.394Z,18.2
2016-06-30T01:07:03.406Z,18.3
2016-06-30T01:07:13.407Z,18.2
2016-06-30T01:07:23.412Z,18.2
2016-06-30T01:07:33.419Z,18.2
2016-06-30T01:07:43.434Z,18.2
2016-06-30T01:07:53.431Z,18.2
2016-06-30T01:08:03.439Z,18.3
2016-06-30T01:08:13.446Z,18.3
2016-06-30T01:08:23.455Z,18.3
2016-06-30T01:08:33.460Z,18.3
2016-06-30T01:08:43.470Z,18.2
2016-06-30T01:08:53.470Z,18.3
2016-06-30T01:09:03.492Z,18.2
2016-06-30T01:09:13.479Z,18.2
2016-06-30T01:09:23.494Z,18.2
2016-06-30T01:09:33.500Z,18.2
2016-06-30T01:09:43.502Z,18.2
2016-06-30T01:09:53.510Z,18.2
2016-06-30T01:10:03.521Z,18.2
2016-06-30T01:10:13.523Z,18.2
2016-06-30T01:10:23.529Z,18.3
2016-06-30T01:10:33.537Z,18.1
2016-06-30T01:10:43.543Z,18.1
2016-06-30T01:10:53.562Z,18.2
2016-06-30T01:11:03.556Z,18.2
2016-06-30T01:11:13.562Z,18.2
2016-06-30T01:11:23.571Z,18.2
2016-06-30T01:11:33.575Z,18.2
2016-06-30T01:11:43.583Z,18.2
2016-06-30T01:11:53.583Z,18.2
2016-06-30T01:12:03.592Z,18.1
2016-06-30T01:12:13.597Z,18.1
2016-06-30T01:12:23.605Z,18.2
2016-06-30T01:12:33.619Z,18.2
2016-06-30T01:12:43.629Z,18.1
2016-06-30T01:12:53.628Z,18.1
2016-06-30T01:13:03.634Z,18.2
2016-06-30T01:13:13.641Z,18.1
2016-06-30T01:13:23.650Z,18.2
2016-06-30T01:13:33.654Z,18.1
2016-06-30T01:13:43.659Z,18.2
2016-06-30T01:13:53.669Z,18.2
2016-06-30T01:14:03.671Z,18.2
2016-06-30T01:14:13.695Z,18.2
2016-06-30T01:14:23.683Z,18.2
2016-06-30T01:14:33.689Z,18.3
2016-06-30T01:14:43.693Z,18.3
2016-06-30T01:14:53.703Z,18.2
2016-06-30T01:15:03.705Z,18.2
2016-06-30T01:15:13.713Z,18.2
2016-06-30T01:15:23.721Z,18.2
2016-06-30T01:15:33.729Z,18.3
2016-06-30T01:15:43.753Z,18.3
2016-06-30T01:15:53.735Z,18.3
2016-06-30T01:16:03.747Z,18.3
2016-06-30T01:16:13.756Z,18.2
2016-06-30T01:16:23.757Z,18.2
2016-06-30T01:16:33.769Z,18.2
2016-06-30T01:16:43.771Z,18.1
2016-06-30T01:16:53.781Z,18.1
2016-06-30T01:17:03.785Z,18.2
2016-06-30T01:17:13.790Z,18.1
2016-06-30T01:17:23.800Z,18.2
2016-06-30T01:17:33.801Z,18.2
2016-06-30T01:17:43.826Z,18.2
2016-06-30T01:17:53.815Z,18.2
2016-06-30T01:18:03.825Z,18.1
2016-06-30T01:18:13.838Z,18.1
2016-06-30T01:18:23.830Z,18.2
2016-06-30T01:18:33.848Z,18.1
2016-06-30T01:18:43.854Z,18.2
2016-06-30T01:18:53.858Z,18.2
2016-06-30T01:19:03.867Z,18.2
2016-06-30T01:19:13.865Z,18.3
2016-06-30T01:19:23.877Z,18.3
2016-06-30T01:19:33.902Z,18.3
2016-06-30T01:19:43.886Z,18.2
2016-06-30T01:19:53.886Z,18.2
2016-06-30T01:20:03.912Z,18.2
2016-06-30T01:20:13.918Z,18.2
2016-06-30T01:20:23.910Z,18.2
2016-06-30T01:20:33.920Z,18.2
2016-06-30T01:20:43.931Z,18.1
2016-06-30T01:20:53.947Z,18.2
2016-06-30T01:21:03.938Z,18.2
2016-06-30T01:21:13.948Z,18.1
2016-06-30T01:21:23.960Z,18.1
2016-06-30T01:21:33.958Z,18.1
2016-06-30T01:21:43.970Z,18.1
2016-06-30T01:21:53.982Z,18.1
2016-06-30T01:22:04.059Z,18.1
2016-06-30T01:22:13.983Z,18.1
2016-06-30T01:22:23.989Z,18.1
2016-06-30T01:22:33.994Z,18.2
2016-06-30T01:22:44.019Z,18.1
2016-06-30T01:22:54.010Z,18.2
2016-06-30T01:23:04.310Z,18.2
2016-06-30T01:23:14.462Z,18.2
2016-06-30T01:23:24.334Z,18.1
2016-06-30T01:23:34.390Z,18.2
2016-06-30T01:23:44.259Z,18.1
2016-06-30T01:23:54.161Z,18.1
2016-06-30T01:24:04.100Z,18.2
2016-06-30T01:24:14.053Z,18.1
2016-06-30T01:24:24.065Z,18.1
2016-06-30T01:24:34.084Z,18.1
2016-06-30T01:24:44.085Z,18.1
2016-06-30T01:24:54.087Z,18.2
2016-06-30T01:25:04.097Z,18.1
2016-06-30T01:25:14.104Z,18.1
2016-06-30T01:25:24.103Z,18.1
2016-06-30T01:25:34.112Z,18.2
2016-06-30T01:25:44.139Z,18.1
2016-06-30T01:25:54.119Z,18.1
2016-06-30T01:26:04.127Z,18.1
2016-06-30T01:26:14.135Z,18.2
2016-06-30T01:26:24.150Z,18.2
2016-06-30T01:26:34.150Z,18.1
2016-06-30T01:26:44.155Z,18.1
2016-06-30T01:26:54.165Z,18.1
2016-06-30T01:27:04.167Z,18.2
2016-06-30T01:27:14.175Z,18.1
2016-06-30T01:27:24.179Z,18.1
2016-06-30T01:27:34.197Z,18
2016-06-30T01:27:44.199Z,18.1
2016-06-30T01:27:54.199Z,18.1
2016-06-30T01:28:04.215Z,18.1
2016-06-30T01:28:14.214Z,18.1
2016-06-30T01:28:24.221Z,18.1
2016-06-30T01:28:34.227Z,18.1
2016-06-30T01:28:44.233Z,18.2
2016-06-30T01:28:54.237Z,18.1
2016-06-30T01:29:04.249Z,18.1
2016-06-30T01:29:14.252Z,18.1
2016-06-30T01:29:24.266Z,18.1
2016-06-30T01:29:34.264Z,18.1
2016-06-30T01:29:44.282Z,18.1
2016-06-30T01:29:54.293Z,18.2
2016-06-30T01:30:04.288Z,18.1
2016-06-30T01:30:14.309Z,18.2
2016-06-30T01:30:24.295Z,18.1
2016-06-30T01:30:34.411Z,18.1
2016-06-30T01:30:44.334Z,18
2016-06-30T01:30:54.324Z,18.1
2016-06-30T01:31:04.317Z,18.1
2016-06-30T01:31:14.391Z,18.1
2016-06-30T01:31:24.330Z,18.1
2016-06-30T01:31:34.343Z,18.1
2016-06-30T01:31:44.350Z,18.1
2016-06-30T01:31:54.390Z,18.2
2016-06-30T01:32:04.356Z,18.2
2016-06-30T01:32:14.358Z,18.3
2016-06-30T01:32:24.366Z,18.3
2016-06-30T01:32:34.384Z,18.3
2016-06-30T01:32:44.387Z,18.3
2016-06-30T01:32:54.394Z,18.3
2016-06-30T01:33:04.404Z,18.3
2016-06-30T01:33:14.412Z,18.4
2016-06-30T01:33:24.407Z,18.4
2016-06-30T01:33:34.420Z,18.5
2016-06-30T01:33:44.426Z,18.6
2016-06-30T01:33:54.429Z,18.6
2016-06-30T01:34:04.436Z,18.7
2016-06-30T01:34:14.450Z,18.6
2016-06-30T01:34:24.444Z,18.6
2016-06-30T01:34:34.455Z,18.6
2016-06-30T01:34:44.471Z,18.6
2016-06-30T01:34:54.466Z,18.6
2016-06-30T01:35:04.497Z,18.5
2016-06-30T01:35:14.489Z,18.6
2016-06-30T01:35:24.484Z,18.6
2016-06-30T01:35:34.495Z,18.6
2016-06-30T01:35:44.503Z,18.7
2016-06-30T01:35:54.542Z,18.7
2016-06-30T01:36:04.519Z,18.8
2016-06-30T01:36:14.517Z,18.7
2016-06-30T01:36:24.553Z,18.7
2016-06-30T01:36:34.530Z,18.7
2016-06-30T01:36:44.546Z,18.7
2016-06-30T01:36:54.543Z,18.6
2016-06-30T01:37:04.656Z,18.6
2016-06-30T01:37:14.555Z,18.5
2016-06-30T01:37:24.567Z,18.4
2016-06-30T01:37:34.570Z,18.4
2016-06-30T01:37:44.600Z,18.4
2016-06-30T01:37:54.582Z,18.4
2016-06-30T01:38:04.587Z,18.3
2016-06-30T01:38:14.609Z,18.2
2016-06-30T01:38:24.653Z,18.3
2016-06-30T01:38:34.609Z,18.3
2016-06-30T01:38:44.611Z,18.3
2016-06-30T01:38:54.623Z,18.3
2016-06-30T01:39:04.634Z,18.3
2016-06-30T01:39:14.636Z,18.3
2016-06-30T01:39:24.646Z,18.3
2016-06-30T01:39:34.649Z,18.3
2016-06-30T01:39:44.661Z,18.3
2016-06-30T01:39:54.665Z,18.3
2016-06-30T01:40:04.671Z,18.3
2016-06-30T01:40:14.674Z,18.3
2016-06-30T01:40:24.682Z,18.2
2016-06-30T01:40:34.693Z,18.2
2016-06-30T01:40:44.718Z,18.2
2016-06-30T01:40:54.710Z,18.2
2016-06-30T01:41:04.719Z,18.1
2016-06-30T01:41:14.734Z,18.2
2016-06-30T01:41:24.718Z,18.2
2016-06-30T01:41:34.726Z,18.2
2016-06-30T01:41:44.728Z,18.1
2016-06-30T01:41:54.735Z,18.2
2016-06-30T01:42:04.746Z,18.2
2016-06-30T01:42:14.752Z,18.2
2016-06-30T01:42:24.757Z,18.1
2016-06-30T01:42:34.760Z,18.1
2016-06-30T01:42:44.773Z,18.1
2016-06-30T01:42:54.772Z,18.2
2016-06-30T01:43:04.790Z,18.2
2016-06-30T01:43:14.793Z,18.2
2016-06-30T01:43:24.791Z,18.2
2016-06-30T01:43:34.907Z,18.1
2016-06-30T01:43:44.808Z,18.1
2016-06-30T01:43:54.813Z,18
2016-06-30T01:44:04.828Z,18
2016-06-30T01:44:14.849Z,18.1
2016-06-30T01:44:24.862Z,18.1
2016-06-30T01:44:34.839Z,18.1
2016-06-30T01:44:44.854Z,18.1
2016-06-30T01:44:54.865Z,18.1
2016-06-30T01:45:04.857Z,18.1
2016-06-30T01:45:14.876Z,18.1
2016-06-30T01:45:24.874Z,18
2016-06-30T01:45:34.883Z,18
2016-06-30T01:45:44.882Z,18
2016-06-30T01:45:54.897Z,18
2016-06-30T01:46:04.916Z,18.1
2016-06-30T01:46:14.915Z,18.1
2016-06-30T01:46:24.913Z,18.1
2016-06-30T01:46:34.921Z,18.1
2016-06-30T01:46:44.920Z,18.2
2016-06-30T01:46:54.935Z,18.1
2016-06-30T01:47:04.933Z,18.1
2016-06-30T01:47:14.943Z,18
2016-06-30T01:47:24.954Z,18
2016-06-30T01:47:34.958Z,18
2016-06-30T01:47:44.965Z,18
2016-06-30T01:47:54.971Z,18
2016-06-30T01:48:04.972Z,18
2016-06-30T01:48:14.984Z,18
2016-06-30T01:48:24.987Z,18
2016-06-30T01:48:34.998Z,18
2016-06-30T01:48:45.005Z,18
2016-06-30T01:48:55.004Z,18
2016-06-30T01:49:05.008Z,17.9
2016-06-30T01:49:15.026Z,17.9
2016-06-30T01:49:25.022Z,18
2016-06-30T01:49:35.048Z,18.1
2016-06-30T01:49:45.046Z,18.1
2016-06-30T01:49:55.045Z,18.1
2016-06-30T01:50:05.047Z,18.1
2016-06-30T01:50:15.062Z,18.1
2016-06-30T01:50:25.065Z,18
2016-06-30T01:50:35.074Z,18.1
2016-06-30T01:50:45.077Z,18.1
2016-06-30T01:50:55.081Z,18
2016-06-30T01:51:05.089Z,18
2016-06-30T01:51:15.093Z,18
2016-06-30T01:51:25.111Z,18
2016-06-30T01:51:35.127Z,18.1
2016-06-30T01:51:45.118Z,18.1
2016-06-30T01:51:55.119Z,18.1
2016-06-30T01:52:05.123Z,18.1
2016-06-30T01:52:15.131Z,18.1
2016-06-30T01:52:25.143Z,18.2
2016-06-30T01:52:35.149Z,18.2
2016-06-30T01:52:45.187Z,18.1
2016-06-30T01:52:55.163Z,18.1
2016-06-30T01:53:05.166Z,18.2
2016-06-30T01:53:15.176Z,18.1
2016-06-30T01:53:25.184Z,18
2016-06-30T01:53:35.191Z,18.1
2016-06-30T01:53:45.202Z,18
2016-06-30T01:53:55.203Z,18
2016-06-30T01:54:05.206Z,18
2016-06-30T01:54:15.212Z,18
2016-06-30T01:54:25.221Z,18
2016-06-30T01:54:35.227Z,18
2016-06-30T01:54:45.252Z,18.1
2016-06-30T01:54:55.232Z,18
2016-06-30T01:55:05.248Z,17.9
2016-06-30T01:55:15.248Z,18
2016-06-30T01:55:25.253Z,18
2016-06-30T01:55:35.261Z,18
2016-06-30T01:55:45.267Z,18
2016-06-30T01:55:55.305Z,18
2016-06-30T01:56:05.286Z,18
2016-06-30T01:56:15.291Z,18
2016-06-30T01:56:25.294Z,18
2016-06-30T01:56:35.294Z,18
2016-06-30T01:56:45.319Z,18
2016-06-30T01:56:55.309Z,18
2016-06-30T01:57:05.320Z,18
2016-06-30T01:57:15.327Z,18
2016-06-30T01:57:25.334Z,18
2016-06-30T01:57:35.341Z,18.1
2016-06-30T01:57:45.369Z,18.1
2016-06-30T01:57:55.359Z,18.1
2016-06-30T01:58:05.361Z,18.2
2016-06-30T01:58:15.363Z,18.2
2016-06-30T01:58:25.371Z,18.2
2016-06-30T01:58:35.379Z,18.2
2016-06-30T01:58:45.383Z,18.3
2016-06-30T01:58:55.387Z,18.2
2016-06-30T01:59:05.399Z,18.1
2016-06-30T01:59:15.399Z,18.1
2016-06-30T01:59:25.405Z,18.1
2016-06-30T01:59:35.421Z,18.1
2016-06-30T01:59:45.418Z,18.1
2016-06-30T01:59:55.440Z,18.1
2016-06-30T02:00:05.430Z,18.1
2016-06-30T02:00:15.435Z,18
2016-06-30T02:00:25.448Z,18
2016-06-30T02:00:35.453Z,18
2016-06-30T02:00:45.477Z,18
2016-06-30T02:00:55.465Z,18
2016-06-30T02:01:05.470Z,18
2016-06-30T02:01:15.482Z,18
2016-06-30T02:01:25.486Z,18
2016-06-30T02:01:35.490Z,18
2016-06-30T02:01:45.504Z,17.9
2016-06-30T02:01:55.504Z,18
2016-06-30T02:02:05.507Z,17.9
2016-06-30T02:02:15.515Z,17.9
2016-06-30T02:02:25.520Z,18
2016-06-30T02:02:35.526Z,18
2016-06-30T02:02:45.550Z,17.9
2016-06-30T02:02:55.543Z,18
2016-06-30T02:03:05.547Z,17.9
2016-06-30T02:03:15.558Z,18
2016-06-30T02:03:25.559Z,18
2016-06-30T02:03:35.568Z,18
2016-06-30T02:03:45.572Z,18.1
2016-06-30T02:03:55.580Z,18
2016-06-30T02:04:05.589Z,18
2016-06-30T02:04:15.600Z,18
2016-06-30T02:04:25.599Z,17.9
2016-06-30T02:04:35.608Z,18
2016-06-30T02:04:45.615Z,18
2016-06-30T02:04:55.622Z,18
2016-06-30T02:05:05.667Z,18.1
2016-06-30T02:05:15.635Z,18
2016-06-30T02:05:25.649Z,18
2016-06-30T02:05:35.645Z,18
2016-06-30T02:05:45.658Z,18
2016-06-30T02:05:55.658Z,18
2016-06-30T02:06:05.668Z,18
2016-06-30T02:06:15.673Z,18
2016-06-30T02:06:25.682Z,18
2016-06-30T02:06:35.685Z,18
2016-06-30T02:06:45.705Z,18
2016-06-30T02:06:55.707Z,18.1
2016-06-30T02:07:05.699Z,18.1
2016-06-30T02:07:15.708Z,18
2016-06-30T02:07:25.721Z,18
2016-06-30T02:07:35.726Z,18.1
2016-06-30T02:07:45.728Z,18
2016-06-30T02:07:55.735Z,18.1
2016-06-30T02:08:05.740Z,18
2016-06-30T02:08:15.759Z,18
2016-06-30T02:08:25.757Z,18
2016-06-30T02:08:35.760Z,18
2016-06-30T02:08:45.782Z,18
2016-06-30T02:08:55.780Z,18
2016-06-30T02:09:05.777Z,18
2016-06-30T02:09:15.786Z,18
2016-06-30T02:09:25.797Z,18
2016-06-30T02:09:35.799Z,18
2016-06-30T02:09:45.825Z,17.9
2016-06-30T02:09:55.852Z,18
2016-06-30T02:10:05.819Z,18
2016-06-30T02:10:15.831Z,18
2016-06-30T02:10:25.829Z,18
2016-06-30T02:10:35.838Z,18
2016-06-30T02:10:45.844Z,18
2016-06-30T02:10:55.852Z,18.1
2016-06-30T02:11:05.867Z,18.1
2016-06-30T02:11:15.874Z,18
2016-06-30T02:11:25.887Z,18.1
2016-06-30T02:11:35.877Z,18
2016-06-30T02:11:45.875Z,17.9
2016-06-30T02:11:55.886Z,18
2016-06-30T02:12:05.890Z,18
2016-06-30T02:12:15.902Z,17.9
2016-06-30T02:12:25.910Z,17.9
2016-06-30T02:12:35.919Z,17.9
2016-06-30T02:12:45.919Z,17.9
2016-06-30T02:12:55.928Z,17.9
2016-06-30T02:13:05.931Z,17.9
2016-06-30T02:13:15.993Z,18
2016-06-30T02:13:25.951Z,18
2016-06-30T02:13:35.950Z,17.9
2016-06-30T02:13:45.958Z,17.8
2016-06-30T02:13:55.966Z,17.9
2016-06-30T02:14:05.978Z,17.9
2016-06-30T02:14:15.980Z,17.8